Time;durP1;ratioP1;P1;durP2;ratioP2;P2;SDS_P1;SDS_P2;PMS_P1;PMS_P2;Temp;Humidity;BMP_temperature;BMP_pressure;BME280_temperature;BME280_humidity;BME280_pressure;Samples;Min_cycle;Max_cycle;Signal;HPM_P1;HPM_P2
2022/09/06 00:00:44;;;;;;;;;;;;;;;;;;5070365;28;20056;-79
2022/09/06 00:03:10;;;;;;;;;;;;;;;;;;5088541;28;19923;-79
2022/09/06 00:05:35;;;;;;;;;;;;;;;;;;5069869;28;19915;-79
2022/09/06 00:08:00;;;;;;;;;;;;;;;;;;5059413;28;19923;-79
2022/09/06 00:10:25;;;;;;;;;;;;;;;;;;5091264;28;20070;-79
2022/09/06 00:12:50;;;;;;;;;;;;;;;;;;5093290;28;19965;-79
2022/09/06 00:15:15;;;;;;;;;;;;;;;;;;5076288;28;19923;-77
2022/09/06 00:17:43;;;;;;;;;;;;;;;;;;5072858;28;19946;-78
2022/09/06 00:20:08;;;;;;;;;;;;;;;;;;5080557;28;20383;-77
2022/09/06 00:22:35;;;;;;;;;;;;;;;;;;5091339;28;19946;-79
2022/09/06 00:25:00;;;;;;;;;;;;;;;;;;5083919;28;19916;-77
2022/09/06 00:27:26;;;;;;;;;;;;;;;;;;5070469;28;19998;-76
2022/09/06 00:29:51;;;;;;;;;;;;;;;;;;5069192;28;20284;-78
2022/09/06 00:32:17;;;;;;;;;;;;;;;;;;5072525;28;19921;-74
2022/09/06 00:34:42;;;;;;;;;;;;;;;;;;5089729;28;19913;-78
2022/09/06 00:37:07;;;;;;;;;;;;;;;;;;5089170;28;20002;-75
2022/09/06 00:39:32;;;;;;;;;;;;;;;;;;5088653;28;20301;-79
2022/09/06 00:41:57;;;;;;;;;;;;;;;;;;5092910;28;20265;-76
2022/09/06 00:44:22;;;;;;;;;;;;;;;;;;5090986;28;19916;-78
2022/09/06 00:46:48;;;;;;;;;;;;;;;;;;5079287;28;20371;-78
2022/09/06 00:49:13;;;;;;;;;;;;;;;;;;5071747;28;19912;-79
2022/09/06 00:51:38;;;;;;;;;;;;;;;;;;5081108;28;20003;-78
2022/09/06 00:54:03;;;;;;;;;;;;;;;;;;5059987;28;19912;-78
2022/09/06 00:56:30;;;;;;;;;;;;;;;;;;5090481;28;19904;-76
2022/09/06 00:58:55;;;;;;;;;;;;;;;;;;5087423;28;19955;-78
2022/09/06 01:01:20;;;;;;;;;;;;;;;;;;5056924;28;19982;-78
2022/09/06 01:03:45;;;;;;;;;;;;;;;;;;5074335;28;19947;-78
2022/09/06 01:06:10;;;;;;;;;;;;;;;;;;5074237;28;20307;-78
2022/09/06 01:08:36;;;;;;;;;;;;;;;;;;5066466;28;21422;-78
2022/09/06 01:11:01;;;;;;;;;;;;;;;;;;5075924;28;19908;-79
2022/09/06 01:13:26;;;;;;;;;;;;;;;;;;5076441;28;20339;-79
2022/09/06 01:15:51;;;;;;;;;;;;;;;;;;5082694;28;19920;-77
2022/09/06 01:18:16;;;;;;;;;;;;;;;;;;5096182;28;19966;-78
2022/09/06 01:20:41;;;;;;;;;;;;;;;;;;5086441;28;19912;-77
2022/09/06 01:23:07;;;;;;;;;;;;;;;;;;5071786;28;19939;-78
2022/09/06 01:25:32;;;;;;;;;;;;;;;;;;5094287;28;19924;-78
2022/09/06 01:27:57;;;;;;;;;;;;;;;;;;5057286;28;20381;-74
2022/09/06 01:30:22;;;;;;;;;;;;;;;;;;5096480;28;19932;-78
2022/09/06 01:32:47;;;;;;;;;;;;;;;;;;5074246;28;20391;-77
2022/09/06 01:35:12;;;;;;;;;;;;;;;;;;5074965;28;19912;-78
2022/09/06 01:37:37;;;;;;;;;;;;;;;;;;5070680;28;19916;-76
2022/09/06 01:40:03;;;;;;;;;;;;;;;;;;5077260;28;20418;-78
2022/09/06 01:42:28;;;;;;;;;;;;;;;;;;5080105;28;20436;-78
2022/09/06 01:44:53;;;;;;;;;;;;;;;;;;5091489;28;19920;-77
2022/09/06 01:47:18;;;;;;;;;;;;;;;;;;5087752;28;19939;-77
2022/09/06 01:49:43;;;;;;;;;;;;;;;;;;5079318;28;20376;-78
2022/09/06 01:52:08;;;;;;;;;;;;;;;;;;5061178;28;19956;-77
2022/09/06 01:54:34;;;;;;;;;;;;;;;;;;5079065;28;20331;-77
2022/09/06 01:56:59;;;;;;;;;;;;;;;;;;5057302;28;19919;-77
2022/09/06 01:59:24;;;;;;;;;;;;;;;;;;5076021;28;20368;-77
2022/09/06 02:01:49;;;;;;;;;;;;;;;;;;5086179;28;20419;-77
2022/09/06 02:04:14;;;;;;;;;;;;;;;;;;5088603;28;19920;-80
2022/09/06 02:06:39;;;;;;;;;;;;;;;;;;5063770;28;19912;-79
2022/09/06 02:09:05;;;;;;;;;;;;;;;;;;5067229;28;19928;-79
2022/09/06 02:11:30;;;;;;;;;;;;;;;;;;5074872;28;19909;-80
2022/09/06 02:13:55;;;;;;;;;;;;;;;;;;5094681;28;19908;-78
2022/09/06 02:16:20;;;;;;;;;;;;;;;;;;5073176;28;19927;-79
2022/09/06 02:18:45;;;;;;;;;;;;;;;;;;5070896;28;19935;-79
2022/09/06 02:21:10;;;;;;;;;;;;;;;;;;5085836;28;19916;-79
2022/09/06 02:23:35;;;;;;;;;;;;;;;;;;5056451;28;19920;-78
2022/09/06 02:26:00;;;;;;;;;;;;;;;;;;5071638;28;19947;-78
2022/09/06 02:28:26;;;;;;;;;;;;;;;;;;5078432;28;19938;-78
2022/09/06 02:30:51;;;;;;;;;;;;;;;;;;5088321;28;20265;-78
2022/09/06 02:33:16;;;;;;;;;;;;;;;;;;5103585;28;20283;-78
2022/09/06 02:35:41;;;;;;;;;;;;;;;;;;5066155;28;19909;-78
2022/09/06 02:38:06;;;;;;;;;;;;;;;;;;5084937;28;19912;-79
2022/09/06 02:40:31;;;;;;;;;;;;;;;;;;5092898;28;20284;-79
2022/09/06 02:42:56;;;;;;;;;;;;;;;;;;5085548;28;19912;-78
2022/09/06 02:45:22;;;;;;;;;;;;;;;;;;5085940;28;20348;-78
2022/09/06 02:47:47;;;;;;;;;;;;;;;;;;5083410;28;20462;-76
2022/09/06 02:50:14;;;;;;;;;;;;;;;;;;5071867;28;20396;-80
2022/09/06 02:52:39;;;;;;;;;;;;;;;;;;5067677;28;19921;-79
2022/09/06 02:55:04;;;;;;;;;;;;;;;;;;5093175;28;19912;-79
2022/09/06 02:57:29;;;;;;;;;;;;;;;;;;5093396;28;19938;-79
2022/09/06 02:59:54;;;;;;;;;;;;;;;;;;5089732;28;19912;-78
2022/09/06 03:02:19;;;;;;;;;;;;;;;;;;5091395;28;20303;-77
2022/09/06 03:04:45;;;;;;;;;;;;;;;;;;5076306;28;19912;-80
2022/09/06 03:07:10;;;;;;;;;;;;;;;;;;5090657;28;20288;-79
2022/09/06 03:09:35;;;;;;;;;;;;;;;;;;5068246;28;19955;-79
2022/09/06 03:12:00;;;;;;;;;;;;;;;;;;5058368;28;20280;-80
2022/09/06 03:14:25;;;;;;;;;;;;;;;;;;5075754;28;19919;-78
2022/09/06 03:16:50;;;;;;;;;;;;;;;;;;5064074;28;19920;-80
2022/09/06 03:19:16;;;;;;;;;;;;;;;;;;5078806;28;20399;-80
2022/09/06 03:21:42;;;;;;;;;;;;;;;;;;5044289;28;20349;-81
2022/09/06 03:24:07;;;;;;;;;;;;;;;;;;5064628;28;19920;-77
2022/09/06 03:26:32;;;;;;;;;;;;;;;;;;5054398;28;19908;-80
2022/09/06 03:28:57;;;;;;;;;;;;;;;;;;5055510;28;19931;-77
2022/09/06 03:31:22;;;;;;;;;;;;;;;;;;5052055;28;20001;-79
2022/09/06 03:33:47;;;;;;;;;;;;;;;;;;5052010;28;19924;-77
2022/09/06 03:36:12;;;;;;;;;;;;;;;;;;5064328;28;19915;-78
2022/09/06 03:38:37;;;;;;;;;;;;;;;;;;5041681;28;20027;-78
2022/09/06 03:41:03;;;;;;;;;;;;;;;;;;5035075;28;19913;-78
2022/09/06 03:43:28;;;;;;;;;;;;;;;;;;5035566;28;19938;-78
2022/09/06 03:45:53;;;;;;;;;;;;;;;;;;5037019;28;19913;-79
2022/09/06 03:48:18;;;;;;;;;;;;;;;;;;5045080;28;19916;-78
2022/09/06 03:50:44;;;;;;;;;;;;;;;;;;5062225;28;19996;-78
2022/09/06 03:53:09;;;;;;;;;;;;;;;;;;5054458;28;19917;-77
2022/09/06 03:55:34;;;;;;;;;;;;;;;;;;5062699;28;19920;-78
2022/09/06 03:57:59;;;;;;;;;;;;;;;;;;5069587;28;19908;-79
2022/09/06 04:00:25;;;;;;;;;;;;;;;;;;5053491;28;20002;-79
2022/09/06 04:02:50;;;;;;;;;;;;;;;;;;5040432;28;19920;-79
2022/09/06 04:05:15;;;;;;;;;;;;;;;;;;5048205;28;19917;-79
2022/09/06 04:07:40;;;;;;;;;;;;;;;;;;5055080;28;19939;-79
2022/09/06 04:10:06;;;;;;;;;;;;;;;;;;5051156;28;19912;-79
2022/09/06 04:12:31;;;;;;;;;;;;;;;;;;5036657;28;20011;-79
2022/09/06 04:14:56;;;;;;;;;;;;;;;;;;5042952;28;20505;-79
2022/09/06 04:17:21;;;;;;;;;;;;;;;;;;5070177;28;20300;-79
2022/09/06 04:19:46;;;;;;;;;;;;;;;;;;5090360;28;19908;-79
2022/09/06 04:22:11;;;;;;;;;;;;;;;;;;5092150;28;19999;-79
2022/09/06 04:24:36;;;;;;;;;;;;;;;;;;5065685;28;19920;-79
2022/09/06 04:27:01;;;;;;;;;;;;;;;;;;5079385;28;19912;-79
2022/09/06 04:29:27;;;;;;;;;;;;;;;;;;5081867;28;20359;-78
2022/09/06 04:31:52;;;;;;;;;;;;;;;;;;5074286;28;19916;-79
2022/09/06 04:34:18;;;;;;;;;;;;;;;;;;5056473;28;19922;-69
2022/09/06 04:36:43;;;;;;;;;;;;;;;;;;5084970;28;20303;-68
2022/09/06 04:39:08;;;;;;;;;;;;;;;;;;5088805;28;20654;-67
2022/09/06 04:41:33;;;;;;;;;;;;;;;;;;5078503;28;19915;-67
2022/09/06 04:43:59;;;;;;;;;;;;;;;;;;5072494;28;19926;-67
2022/09/06 04:46:24;;;;;;;;;;;;;;;;;;5084468;28;19974;-64
2022/09/06 04:48:49;;;;;;;;;;;;;;;;;;5092546;28;19908;-68
2022/09/06 04:51:14;;;;;;;;;;;;;;;;;;5068604;28;19966;-67
2022/09/06 04:53:39;;;;;;;;;;;;;;;;;;5088186;28;19912;-67
2022/09/06 04:56:04;;;;;;;;;;;;;;;;;;5071868;28;20281;-67
2022/09/06 04:58:30;;;;;;;;;;;;;;;;;;5072805;28;20439;-67
2022/09/06 05:00:55;;;;;;;;;;;;;;;;;;5053789;28;19912;-67
2022/09/06 05:03:20;;;;;;;;;;;;;;;;;;5068171;28;19919;-67
2022/09/06 05:05:45;;;;;;;;;;;;;;;;;;5089583;28;20323;-67
2022/09/06 05:08:10;;;;;;;;;;;;;;;;;;5091540;28;20074;-67
2022/09/06 05:10:36;;;;;;;;;;;;;;;;;;5072297;28;19916;-67
2022/09/06 05:13:01;;;;;;;;;;;;;;;;;;5067652;28;19912;-68
2022/09/06 05:15:26;;;;;;;;;;;;;;;;;;5090224;28;19984;-67
2022/09/06 05:17:51;;;;;;;;;;;;;;;;;;5078119;28;19918;-67
2022/09/06 05:20:16;;;;;;;;;;;;;;;;;;5096941;28;19912;-67
2022/09/06 05:22:41;;;;;;;;;;;;;;;;;;5079366;28;20364;-67
2022/09/06 05:25:07;;;;;;;;;;;;;;;;;;5091470;28;20287;-68
2022/09/06 05:27:32;;;;;;;;;;;;;;;;;;5077172;28;20000;-68
2022/09/06 05:29:57;;;;;;;;;;;;;;;;;;5072183;28;19912;-68
2022/09/06 05:32:22;;;;;;;;;;;;;;;;;;5060592;28;19908;-68
2022/09/06 05:34:47;;;;;;;;;;;;;;;;;;5072553;28;20368;-67
2022/09/06 05:37:12;;;;;;;;;;;;;;;;;;5053527;28;19923;-67
2022/09/06 05:39:37;;;;;;;;;;;;;;;;;;5070992;28;19991;-68
2022/09/06 05:42:06;;;;;;;;;;;;;;;;;;5071952;28;19909;-67
2022/09/06 05:44:31;;;;;;;;;;;;;;;;;;5053742;28;19923;-67
2022/09/06 05:46:56;;;;;;;;;;;;;;;;;;5085680;28;19912;-67
2022/09/06 05:49:21;;;;;;;;;;;;;;;;;;5087171;28;19923;-67
2022/09/06 05:51:46;;;;;;;;;;;;;;;;;;5082435;28;20010;-68
2022/09/06 05:54:11;;;;;;;;;;;;;;;;;;5081988;28;19940;-67
2022/09/06 05:56:36;;;;;;;;;;;;;;;;;;5091821;28;19922;-68
2022/09/06 05:59:03;;;;;;;;;;;;;;;;;;5076609;28;19950;-68
2022/09/06 06:01:28;;;;;;;;;;;;;;;;;;5083335;28;19917;-68
2022/09/06 06:03:54;;;;;;;;;;;;;;;;;;5080315;28;19919;-68
2022/09/06 06:06:19;;;;;;;;;;;;;;;;;;5080660;28;19920;-68
2022/09/06 06:08:44;;;;;;;;;;;;;;;;;;5088834;28;19913;-68
2022/09/06 06:11:09;;;;;;;;;;;;;;;;;;5082822;28;19912;-68
2022/09/06 06:13:38;;;;;;;;;;;;;;;;;;5057230;28;19912;-68
2022/09/06 06:16:03;;;;;;;;;;;;;;;;;;5093946;28;19920;-68
2022/09/06 06:18:28;;;;;;;;;;;;;;;;;;5074343;28;19973;-68
2022/09/06 06:20:53;;;;;;;;;;;;;;;;;;5080795;28;20441;-68
2022/09/06 06:23:18;;;;;;;;;;;;;;;;;;5079826;28;19942;-68
2022/09/06 06:25:44;;;;;;;;;;;;;;;;;;5115276;28;19919;-68
2022/09/06 06:28:09;;;;;;;;;;;;;;;;;;5081551;28;19942;-68
2022/09/06 06:30:34;;;;;;;;;;;;;;;;;;5089594;28;19912;-68
2022/09/06 06:33:01;;;;;;;;;;;;;;;;;;5091362;28;20352;-68
2022/09/06 06:35:26;;;;;;;;;;;;;;;;;;5095130;28;19908;-67
2022/09/06 06:37:52;;;;;;;;;;;;;;;;;;5091660;28;19958;-67
2022/09/06 06:40:17;;;;;;;;;;;;;;;;;;5075621;28;20011;-66
2022/09/06 06:42:42;;;;;;;;;;;;;;;;;;5092299;28;19919;-67
2022/09/06 06:45:08;;;;;;;;;;;;;;;;;;5092480;28;19969;-67
2022/09/06 06:47:33;;;;;;;;;;;;;;;;;;5107767;28;19908;-67
2022/09/06 06:49:58;;;;;;;;;;;;;;;;;;5088983;28;20395;-67
2022/09/06 06:52:23;;;;;;;;;;;;;;;;;;5082439;28;20440;-67
2022/09/06 06:54:48;;;;;;;;;;;;;;;;;;5079725;28;19912;-67
2022/09/06 06:57:14;;;;;;;;;;;;;;;;;;5089928;28;19923;-67
2022/09/06 06:59:39;;;;;;;;;;;;;;;;;;5077654;28;19974;-67
2022/09/06 07:02:04;;;;;;;;;;;;;;;;;;5080497;28;19959;-67
2022/09/06 07:04:29;;;;;;;;;;;;;;;;;;5071380;28;20386;-67
2022/09/06 07:06:55;;;;;;;;;;;;;;;;;;5070354;28;20012;-68
2022/09/06 07:09:20;;;;;;;;;;;;;;;;;;5085563;28;19912;-68
2022/09/06 07:11:45;;;;;;;;;;;;;;;;;;5088390;28;19919;-68
2022/09/06 07:14:10;;;;;;;;;;;;;;;;;;5080437;28;19939;-68
2022/09/06 07:16:35;;;;;;;;;;;;;;;;;;5097863;28;19924;-68
2022/09/06 07:19:00;;;;;;;;;;;;;;;;;;5078022;28;19916;-67
2022/09/06 07:21:26;;;;;;;;;;;;;;;;;;5073555;28;20060;-68
2022/09/06 07:23:51;;;;;;;;;;;;;;;;;;5082180;28;20459;-68
2022/09/06 07:26:16;;;;;;;;;;;;;;;;;;5068000;28;20380;-68
2022/09/06 07:28:43;;;;;;;;;;;;;;;;;;5090795;28;21613;-68
2022/09/06 07:31:08;;;;;;;;;;;;;;;;;;5062821;28;19924;-68
2022/09/06 07:33:33;;;;;;;;;;;;;;;;;;5067379;28;20311;-68
2022/09/06 07:35:58;;;;;;;;;;;;;;;;;;5065896;28;19951;-67
2022/09/06 07:38:24;;;;;;;;;;;;;;;;;;5062339;28;20326;-68
2022/09/06 07:40:49;;;;;;;;;;;;;;;;;;5087858;28;20032;-68
2022/09/06 07:43:14;;;;;;;;;;;;;;;;;;5075811;28;20322;-67
2022/09/06 07:45:39;;;;;;;;;;;;;;;;;;5084393;28;20455;-67
2022/09/06 07:48:04;;;;;;;;;;;;;;;;;;5084195;28;20360;-69
2022/09/06 07:50:30;;;;;;;;;;;;;;;;;;5089098;28;19908;-67
2022/09/06 07:52:55;;;;;;;;;;;;;;;;;;5093523;28;20041;-67
2022/09/06 07:55:20;;;;;;;;;;;;;;;;;;5085337;28;20030;-68
2022/09/06 07:57:45;;;;;;;;;;;;;;;;;;5067247;28;19912;-67
2022/09/06 08:00:10;;;;;;;;;;;;;;;;;;5093559;28;19908;-67
2022/09/06 08:02:36;;;;;;;;;;;;;;;;;;5081559;28;19916;-67
2022/09/06 08:05:01;;;;;;;;;;;;;;;;;;5090252;28;19916;-68
2022/09/06 08:07:26;;;;;;;;;;;;;;;;;;5087820;28;20413;-68
2022/09/06 08:09:51;;;;;;;;;;;;;;;;;;5092460;28;19939;-68
2022/09/06 08:12:16;;;;;;;;;;;;;;;;;;5086856;28;19916;-69
2022/09/06 08:14:41;;;;;;;;;;;;;;;;;;5071806;28;19946;-67
2022/09/06 08:17:07;;;;;;;;;;;;;;;;;;5080295;28;20292;-67
2022/09/06 08:19:33;;;;;;;;;;;;;;;;;;5087202;28;19908;-68
2022/09/06 08:21:58;;;;;;;;;;;;;;;;;;5084682;28;19927;-68
2022/09/06 08:24:23;;;;;;;;;;;;;;;;;;5082048;28;19912;-67
2022/09/06 08:26:49;;;;;;;;;;;;;;;;;;5087779;28;19918;-67
2022/09/06 08:29:14;;;;;;;;;;;;;;;;;;5073407;28;19916;-68
2022/09/06 08:31:39;;;;;;;;;;;;;;;;;;5078691;28;20253;-68
2022/09/06 08:34:04;;;;;;;;;;;;;;;;;;5077465;28;19912;-68
2022/09/06 08:36:29;;;;;;;;;;;;;;;;;;5055552;28;19916;-68
2022/09/06 08:38:55;;;;;;;;;;;;;;;;;;5077332;28;19912;-68
2022/09/06 08:41:20;;;;;;;;;;;;;;;;;;5078748;28;19912;-68
2022/09/06 08:43:45;;;;;;;;;;;;;;;;;;5087961;28;19999;-67
2022/09/06 08:46:10;;;;;;;;;;;;;;;;;;5079938;28;19924;-67
2022/09/06 08:48:37;;;;;;;;;;;;;;;;;;5087949;28;19912;-67
2022/09/06 08:51:02;;;;;;;;;;;;;;;;;;5059623;28;19959;-68
2022/09/06 08:53:27;;;;;;;;;;;;;;;;;;5055346;28;20005;-67
2022/09/06 08:55:55;;;;;;;;;;;;;;;;;;5073206;28;20387;-69
2022/09/06 08:58:21;;;;;;;;;;;;;;;;;;5083667;28;19912;-68
2022/09/06 09:00:46;;;;;;;;;;;;;;;;;;5077844;28;19919;-68
2022/09/06 09:03:11;;;;;;;;;;;;;;;;;;5078910;28;19917;-68
2022/09/06 09:05:36;;;;;;;;;;;;;;;;;;5060777;28;19916;-67
2022/09/06 09:08:01;;;;;;;;;;;;;;;;;;5075356;28;20003;-68
2022/09/06 09:10:26;;;;;;;;;;;;;;;;;;5073679;28;19913;-69
2022/09/06 09:12:51;;;;;;;;;;;;;;;;;;5083371;28;19927;-68
2022/09/06 09:15:16;;;;;;;;;;;;;;;;;;5084340;28;20343;-68
2022/09/06 09:17:42;;;;;;;;;;;;;;;;;;5086933;28;19916;-68
2022/09/06 09:20:07;;;;;;;;;;;;;;;;;;5092347;28;20003;-68
2022/09/06 09:22:33;;;;;;;;;;;;;;;;;;5072773;28;19919;-68
2022/09/06 09:24:58;;;;;;;;;;;;;;;;;;5083372;28;19912;-68
2022/09/06 09:27:23;;;;;;;;;;;;;;;;;;5057130;28;19917;-68
2022/09/06 09:29:48;;;;;;;;;;;;;;;;;;5076942;28;19922;-69
2022/09/06 09:32:13;;;;;;;;;;;;;;;;;;5069514;28;20257;-68
2022/09/06 09:34:39;;;;;;;;;;;;;;;;;;5076621;28;19917;-68
2022/09/06 09:37:04;;;;;;;;;;;;;;;;;;5082885;28;19908;-68
2022/09/06 09:39:29;;;;;;;;;;;;;;;;;;5095420;28;19919;-68
2022/09/06 09:41:54;;;;;;;;;;;;;;;;;;5083569;28;19908;-67
2022/09/06 09:44:20;;;;;;;;;;;;;;;;;;5094424;28;19916;-68
2022/09/06 09:46:45;;;;;;;;;;;;;;;;;;5084298;28;20387;-69
2022/09/06 09:49:10;;;;;;;;;;;;;;;;;;5106090;28;19923;-67
2022/09/06 09:51:35;;;;;;;;;;;;;;;;;;5069300;28;19926;-68
2022/09/06 09:54:01;;;;;;;;;;;;;;;;;;5093678;28;19912;-68
2022/09/06 09:56:26;;;;;;;;;;;;;;;;;;5067849;28;20289;-69
2022/09/06 09:58:51;;;;;;;;;;;;;;;;;;5074730;28;19916;-68
2022/09/06 10:01:16;;;;;;;;;;;;;;;;;;5056648;28;19920;-68
2022/09/06 10:03:41;;;;;;;;;;;;;;;;;;5076377;28;19908;-68
2022/09/06 10:06:07;;;;;;;;;;;;;;;;;;5083908;28;19912;-69
2022/09/06 10:08:32;;;;;;;;;;;;;;;;;;5094767;28;19908;-68
2022/09/06 10:10:57;;;;;;;;;;;;;;;;;;5091164;28;19973;-68
2022/09/06 10:13:22;;;;;;;;;;;;;;;;;;5062255;28;20017;-67
2022/09/06 10:15:47;;;;;;;;;;;;;;;;;;5071931;28;20316;-68
2022/09/06 10:18:12;;;;;;;;;;;;;;;;;;5103852;28;19908;-69
2022/09/06 10:20:37;;;;;;;;;;;;;;;;;;5098815;28;20016;-68
2022/09/06 10:23:03;;;;;;;;;;;;;;;;;;5091546;28;19912;-68
2022/09/06 10:25:29;;;;;;;;;;;;;;;;;;5073333;28;19920;-69
2022/09/06 10:27:54;;;;;;;;;;;;;;;;;;5095042;28;19914;-69
2022/09/06 10:30:19;;;;;;;;;;;;;;;;;;5095348;28;20449;-69
2022/09/06 10:32:44;;;;;;;;;;;;;;;;;;5092715;28;20299;-69
2022/09/06 10:35:10;;;;;;;;;;;;;;;;;;5096371;28;19908;-69
2022/09/06 10:37:35;;;;;;;;;;;;;;;;;;5094649;28;19908;-69
2022/09/06 10:40:00;;;;;;;;;;;;;;;;;;5079832;28;20380;-69
2022/09/06 10:42:25;;;;;;;;;;;;;;;;;;5076416;28;19917;-69
2022/09/06 10:44:50;;;;;;;;;;;;;;;;;;5062580;28;19924;-69
2022/09/06 10:47:15;;;;;;;;;;;;;;;;;;5094464;28;19912;-70
2022/09/06 10:49:41;;;;;;;;;;;;;;;;;;5094351;28;20014;-69
2022/09/06 10:52:06;;;;;;;;;;;;;;;;;;5088971;28;20296;-69
2022/09/06 10:54:31;;;;;;;;;;;;;;;;;;5082409;28;19916;-69
2022/09/06 10:56:57;;;;;;;;;;;;;;;;;;5091527;28;19920;-69
2022/09/06 10:59:22;;;;;;;;;;;;;;;;;;5094119;28;19912;-69
2022/09/06 11:01:47;;;;;;;;;;;;;;;;;;5069061;28;19935;-68
2022/09/06 11:04:18;;;;;;;;;;;;;;;;;;5073418;28;20327;-69
2022/09/06 11:06:46;;;;;;;;;;;;;;;;;;5083964;28;19924;-69
2022/09/06 11:09:12;;;;;;;;;;;;;;;;;;5061866;28;19920;-68
2022/09/06 11:11:37;;;;;;;;;;;;;;;;;;5073650;28;19917;-67
2022/09/06 11:14:02;;;;;;;;;;;;;;;;;;5055337;28;19949;-67
2022/09/06 11:16:27;;;;;;;;;;;;;;;;;;5094449;28;19921;-71
2022/09/06 11:18:52;;;;;;;;;;;;;;;;;;5079113;28;19916;-68
2022/09/06 11:21:17;;;;;;;;;;;;;;;;;;5071462;28;19912;-68
2022/09/06 11:23:43;;;;;;;;;;;;;;;;;;5075325;28;19964;-66
2022/09/06 11:26:08;;;;;;;;;;;;;;;;;;5073584;28;21124;-66
2022/09/06 11:28:33;;;;;;;;;;;;;;;;;;5083522;28;19912;-66
2022/09/06 11:30:58;;;;;;;;;;;;;;;;;;5063275;28;20011;-71
2022/09/06 11:33:23;;;;;;;;;;;;;;;;;;5064333;28;20387;-68
2022/09/06 11:35:49;;;;;;;;;;;;;;;;;;5083298;28;20007;-67
2022/09/06 11:38:14;;;;;;;;;;;;;;;;;;5085153;28;19935;-67
2022/09/06 11:40:43;;;;;;;;;;;;;;;;;;5054216;28;20365;-68
2022/09/06 11:43:08;;;;;;;;;;;;;;;;;;5082451;28;19919;-67
2022/09/06 11:45:33;;;;;;;;;;;;;;;;;;5075255;28;19920;-67
2022/09/06 11:47:58;;;;;;;;;;;;;;;;;;5068702;28;19955;-67
2022/09/06 11:50:23;;;;;;;;;;;;;;;;;;5084838;28;19908;-67
2022/09/06 11:52:48;;;;;;;;;;;;;;;;;;5073359;28;19920;-67
2022/09/06 11:55:13;;;;;;;;;;;;;;;;;;5083376;28;19912;-66
2022/09/06 11:57:38;;;;;;;;;;;;;;;;;;5063346;28;20312;-68
2022/09/06 12:00:07;;;;;;;;;;;;;;;;;;5068468;28;19919;-74
2022/09/06 12:02:32;;;;;;;;;;;;;;;;;;5062694;28;20011;-68
2022/09/06 12:04:57;;;;;;;;;;;;;;;;;;5080578;28;20015;-69
2022/09/06 12:07:22;;;;;;;;;;;;;;;;;;5057881;28;19916;-67
2022/09/06 12:09:48;;;;;;;;;;;;;;;;;;5083341;28;19926;-67
2022/09/06 12:12:13;;;;;;;;;;;;;;;;;;5078357;28;19916;-66
2022/09/06 12:14:41;;;;;;;;;;;;;;;;;;5085229;28;20370;-66
2022/09/06 12:17:07;;;;;;;;;;;;;;;;;;5060034;28;19923;-66
2022/09/06 12:19:32;;;;;;;;;;;;;;;;;;5072693;28;19913;-65
2022/09/06 12:21:57;;;;;;;;;;;;;;;;;;5069032;28;19919;-66
2022/09/06 12:24:23;;;;;;;;;;;;;;;;;;5077147;28;19950;-65
2022/09/06 12:26:49;;;;;;;;;;;;;;;;;;5084085;28;19920;-66
2022/09/06 12:29:15;;;;;;;;;;;;;;;;;;5089548;28;19915;-66
2022/09/06 12:31:40;;;;;;;;;;;;;;;;;;5059335;28;19999;-64
2022/09/06 12:34:05;;;;;;;;;;;;;;;;;;5082800;28;19912;-65
2022/09/06 12:36:30;;;;;;;;;;;;;;;;;;5081944;28;19913;-66
2022/09/06 12:38:56;;;;;;;;;;;;;;;;;;5076777;28;19931;-65
2022/09/06 12:41:21;;;;;;;;;;;;;;;;;;5079327;28;20265;-65
2022/09/06 12:43:46;;;;;;;;;;;;;;;;;;5072032;28;19912;-65
2022/09/06 12:46:11;;;;;;;;;;;;;;;;;;5086696;28;19997;-66
2022/09/06 12:48:40;;;;;;;;;;;;;;;;;;5091083;28;20269;-65
2022/09/06 12:51:05;;;;;;;;;;;;;;;;;;5083401;28;19959;-66
2022/09/06 12:53:30;;;;;;;;;;;;;;;;;;5054363;28;19926;-65
2022/09/06 12:55:55;;;;;;;;;;;;;;;;;;5071702;28;19916;-66
2022/09/06 12:58:20;;;;;;;;;;;;;;;;;;5071933;28;19919;-65
2022/09/06 13:00:45;;;;;;;;;;;;;;;;;;5071374;28;19920;-65
2022/09/06 13:03:11;;;;;;;;;;;;;;;;;;5070693;28;19916;-66
2022/09/06 13:05:36;;;;;;;;;;;;;;;;;;5092201;28;19916;-67
2022/09/06 13:08:01;;;;;;;;;;;;;;;;;;5073269;28;20070;-66
2022/09/06 13:10:26;;;;;;;;;;;;;;;;;;5063187;28;19920;-66
2022/09/06 13:12:54;;;;;;;;;;;;;;;;;;5072737;28;19938;-66
2022/09/06 13:15:19;;;;;;;;;;;;;;;;;;5059678;28;19935;-63
2022/09/06 13:17:44;;;;;;;;;;;;;;;;;;5101864;28;19912;-66
2022/09/06 13:20:09;;;;;;;;;;;;;;;;;;5074242;28;19908;-65
2022/09/06 13:22:35;;;;;;;;;;;;;;;;;;5088551;28;19965;-66
2022/09/06 13:25:00;;;;;;;;;;;;;;;;;;5078504;28;19924;-64
2022/09/06 13:27:25;;;;;;;;;;;;;;;;;;5076745;28;19913;-69
2022/09/06 13:29:50;;;;;;;;;;;;;;;;;;5079995;28;19912;-62
2022/09/06 13:32:15;;;;;;;;;;;;;;;;;;5084712;28;20048;-62
2022/09/06 13:34:40;;;;;;;;;;;;;;;;;;5062484;28;19913;-64
2022/09/06 13:37:06;;;;;;;;;;;;;;;;;;5082618;28;20275;-66
2022/09/06 13:39:31;;;;;;;;;;;;;;;;;;5090695;28;19912;-66
2022/09/06 13:41:56;;;;;;;;;;;;;;;;;;5089453;28;20295;-67
2022/09/06 13:44:21;;;;;;;;;;;;;;;;;;5071844;28;19923;-67
2022/09/06 13:46:46;;;;;;;;;;;;;;;;;;5079388;28;19954;-66
2022/09/06 13:49:12;;;;;;;;;;;;;;;;;;5081954;28;19913;-66
2022/09/06 13:51:37;;;;;;;;;;;;;;;;;;5072906;28;20015;-64
2022/09/06 13:54:02;;;;;;;;;;;;;;;;;;5067945;28;19962;-65
2022/09/06 13:56:27;;;;;;;;;;;;;;;;;;5079229;28;19919;-68
2022/09/06 13:58:53;;;;;;;;;;;;;;;;;;5075601;28;19916;-65
2022/09/06 14:01:18;;;;;;;;;;;;;;;;;;5061605;28;19912;-64
2022/09/06 14:03:43;;;;;;;;;;;;;;;;;;5080772;28;19920;-62
2022/09/06 14:06:08;;;;;;;;;;;;;;;;;;5068130;28;19962;-67
2022/09/06 14:08:35;;;;;;;;;;;;;;;;;;5067530;28;19996;-66
2022/09/06 14:11:00;;;;;;;;;;;;;;;;;;5085881;28;20062;-67
2022/09/06 14:13:25;;;;;;;;;;;;;;;;;;5093904;28;20372;-67
2022/09/06 14:15:50;;;;;;;;;;;;;;;;;;5067178;28;19931;-68
2022/09/06 14:18:15;;;;;;;;;;;;;;;;;;5066387;28;19963;-67
2022/09/06 14:20:41;;;;;;;;;;;;;;;;;;5066111;28;20309;-67
2022/09/06 14:23:06;;;;;;;;;;;;;;;;;;5095407;28;19932;-68
2022/09/06 14:25:31;;;;;;;;;;;;;;;;;;5093688;28;20473;-67
2022/09/06 14:27:56;;;;;;;;;;;;;;;;;;5057869;28;19912;-67
2022/09/06 14:30:21;;;;;;;;;;;;;;;;;;5082619;28;19924;-69
2022/09/06 14:32:46;;;;;;;;;;;;;;;;;;5079896;28;19920;-67
2022/09/06 14:35:11;;;;;;;;;;;;;;;;;;5092548;28;19920;-69
2022/09/06 14:37:37;;;;;;;;;;;;;;;;;;5090381;28;19957;-68
2022/09/06 14:40:02;;;;;;;;;;;;;;;;;;5090202;28;19947;-68
2022/09/06 14:42:27;;;;;;;;;;;;;;;;;;5074071;28;19912;-68
2022/09/06 14:44:52;;;;;;;;;;;;;;;;;;5074179;28;20467;-66
2022/09/06 14:47:18;;;;;;;;;;;;;;;;;;5069778;28;20384;-67
2022/09/06 14:49:43;;;;;;;;;;;;;;;;;;5076947;28;20074;-66
2022/09/06 14:52:08;;;;;;;;;;;;;;;;;;5060932;28;19919;-68
2022/09/06 14:54:33;;;;;;;;;;;;;;;;;;5083819;28;19908;-67
2022/09/06 14:56:58;;;;;;;;;;;;;;;;;;5080030;28;20009;-68
2022/09/06 14:59:23;;;;;;;;;;;;;;;;;;5074928;28;19912;-67
2022/09/06 15:01:48;;;;;;;;;;;;;;;;;;5056157;28;19962;-67
2022/09/06 15:04:14;;;;;;;;;;;;;;;;;;5079045;28;19912;-67
2022/09/06 15:06:39;;;;;;;;;;;;;;;;;;5075027;28;19923;-68
2022/09/06 15:09:05;;;;;;;;;;;;;;;;;;5056314;28;19916;-67
2022/09/06 15:11:33;;;;;;;;;;;;;;;;;;5073442;28;19974;-68
2022/09/06 15:13:58;;;;;;;;;;;;;;;;;;5084042;28;19913;-68
2022/09/06 15:16:23;;;;;;;;;;;;;;;;;;5089040;28;20404;-66
2022/09/06 15:18:48;;;;;;;;;;;;;;;;;;5086735;28;19970;-70
2022/09/06 15:21:13;;;;;;;;;;;;;;;;;;5068318;28;19912;-67
2022/09/06 15:23:38;;;;;;;;;;;;;;;;;;5073828;28;19962;-67
2022/09/06 15:26:04;;;;;;;;;;;;;;;;;;5082495;28;20013;-68
2022/09/06 15:28:29;;;;;;;;;;;;;;;;;;5075876;28;19912;-67
2022/09/06 15:30:54;;;;;;;;;;;;;;;;;;5089844;28;19965;-68
2022/09/06 15:33:19;;;;;;;;;;;;;;;;;;5081585;28;19923;-68
2022/09/06 15:35:44;;;;;;;;;;;;;;;;;;5072847;28;19912;-68
2022/09/06 15:38:10;;;;;;;;;;;;;;;;;;5055646;28;19915;-67
2022/09/06 15:40:35;;;;;;;;;;;;;;;;;;5075584;28;19912;-67
2022/09/06 15:43:01;;;;;;;;;;;;;;;;;;5092620;28;19908;-68
2022/09/06 15:45:27;;;;;;;;;;;;;;;;;;5086838;28;19931;-67
2022/09/06 15:47:52;;;;;;;;;;;;;;;;;;5092208;28;20287;-68
2022/09/06 15:50:17;;;;;;;;;;;;;;;;;;5089441;28;20431;-67
2022/09/06 15:52:42;;;;;;;;;;;;;;;;;;5078888;28;20034;-65
2022/09/06 15:57:51;;;;;;;;;;;;;;;;;;5079604;28;20422;-69
2022/09/06 16:00:20;;;;;;;;;;;;;;;;;;5071864;28;20344;-68
2022/09/06 16:02:45;;;;;;;;;;;;;;;;;;5092624;28;19911;-68
2022/09/06 16:05:11;;;;;;;;;;;;;;;;;;5092309;28;19927;-68
2022/09/06 16:07:39;;;;;;;;;;;;;;;;;;5060180;28;19919;-68
2022/09/06 16:10:04;;;;;;;;;;;;;;;;;;5086919;28;19919;-68
2022/09/06 16:12:30;;;;;;;;;;;;;;;;;;5084398;28;19916;-68
2022/09/06 16:14:55;;;;;;;;;;;;;;;;;;5080192;28;19917;-69
2022/09/06 16:17:20;;;;;;;;;;;;;;;;;;5080959;28;19917;-68
2022/09/06 16:19:45;;;;;;;;;;;;;;;;;;5065510;28;20387;-67
2022/09/06 16:22:11;;;;;;;;;;;;;;;;;;5078964;28;19924;-68
2022/09/06 16:24:37;;;;;;;;;;;;;;;;;;5076982;28;20277;-68
2022/09/06 16:27:02;;;;;;;;;;;;;;;;;;5056477;28;19912;-68
2022/09/06 16:29:27;;;;;;;;;;;;;;;;;;5074186;28;19960;-68
2022/09/06 16:31:58;;;;;;;;;;;;;;;;;;5062565;28;20261;-69
2022/09/06 16:34:23;;;;;;;;;;;;;;;;;;5064764;28;19965;-68